Terminal Aerodrome Forecast
Issued by NWS

Home | Current Version | Previous Version | Text Only | Print | Product List | Glossary On
Versions: 1 2 3 4 5 6 7 8 9 10 11 12 13 14 15 16 17 18
000
FTUS42 KTBW 050500
TAFPIE
TAF
KPIE 050539Z 0506/0606 16004KT P6SM SCT050
     FM050900 VRB03KT 6SM BR FEW002 SCT007
     FM051500 18008KT P6SM SCT030
     FM051800 20012KT P6SM FEW040 SCT050
     FM052300 22007KT P6SM SCT020=

USA.gov is the U.S. government's official web portal to all federal, state and local government web resources and services.